Jerramungup Jacup, Australia
Current Conditions -  °F | °C
As of 10:00 AM on Wednesday 22 Oct 2014 (Local Time) from YABA Reporting Station
Broken Clouds Broken Clouds  
Wind Chill: 66°   Ceiling: 2000
Heat Index: 66°   Visibility: 6mi
Dew Point: 57°   Wind: 14mph
Humidity: 73%   Direction: 70°ENE
Pressure: 30.09"   Gusts: NA
Location:  33.72°S, 119.05°E
Report Text: YABA 220200Z 07012KT 9999 BKN020 19/14 Q1019
Loading
Personal Weather Stations






























Interactive Weather Map
Tropical Storm Tracking
New forecast layout! Learn more

10-Day Weather Forecast

Advertisements
Track Severe Weather on mobile